KCWF

Chennault International Airport

Lake Charles, Louisiana, USA
METAR KCWF 152355Z 03005KT 10SM SKC 11/08 A3014
Observed Flight Rules
Dec-15 @ 23:55 UTC (2 hours ago) Visual Flight Rules
Wind Visibility Clouds
30° at 5 knots 10 miles
  • Clear skies
Temperatures Readings
Current 11°C / 52°F
Dewpoint 8°C / 46°F
Humidity 82%
Altimeter 30.14" Hg
Pressure 1021 hPa
Elevation 4
METAR KCWF 152355Z 03005KT 10SM SKC 11/08 A3014
Observed Flight Rules
Dec-15 @ 23:55 UTC
(2 hours ago)
VFR
Wind Visibility
30° at 5 knots 10 miles
Clouds
  • Clear skies
Temperature Dewpoint
11°C / 52°F 8°C / 46°F
Humidity Altimeter Pressure
82% 30.14" Hg 1021 hPa